createdAt,value
2022-11-15T00:02:54.231Z,17.10
2022-11-15T00:06:04.252Z,14.90
2022-11-15T00:09:09.498Z,13.90
2022-11-15T00:12:15.160Z,12.20
2022-11-15T00:15:20.699Z,14.60
2022-11-15T00:18:26.903Z,13.10
2022-11-15T00:21:32.254Z,13.00
2022-11-15T00:24:37.904Z,11.70
2022-11-15T00:27:43.283Z,8.90
2022-11-15T00:30:48.685Z,13.60
2022-11-15T00:33:54.068Z,9.90
2022-11-15T00:36:59.511Z,9.70
2022-11-15T00:40:05.181Z,10.40
2022-11-15T00:43:10.521Z,11.30
2022-11-15T00:46:15.654Z,12.20
2022-11-15T00:49:21.259Z,13.30
2022-11-15T00:52:26.750Z,10.20
2022-11-15T00:55:32.210Z,7.70
2022-11-15T00:58:37.430Z,11.70
2022-11-15T01:01:42.843Z,18.90
2022-11-15T01:04:48.729Z,16.00
2022-11-15T01:07:56.822Z,13.40
2022-11-15T01:11:05.117Z,13.20
2022-11-15T01:14:11.242Z,10.30
2022-11-15T01:17:16.729Z,7.00
2022-11-15T01:20:22.558Z,10.40
2022-11-15T01:23:28.026Z,11.50
2022-11-15T01:26:34.867Z,14.20
2022-11-15T01:29:46.198Z,13.50
2022-11-15T01:32:52.409Z,12.30
2022-11-15T01:35:58.147Z,10.60
2022-11-15T01:39:04.216Z,13.30
2022-11-15T01:42:16.042Z,11.30
2022-11-15T01:45:21.822Z,9.20
2022-11-15T01:48:33.995Z,9.10
2022-11-15T01:51:40.567Z,10.30
2022-11-15T01:54:48.386Z,9.80
2022-11-15T01:58:00.620Z,11.50
2022-11-15T02:02:05.693Z,6.70
2022-11-15T02:10:27.156Z,12.20
2022-11-15T02:13:33.322Z,12.70
2022-11-15T02:17:01.056Z,9.40
2022-11-15T02:20:20.211Z,12.00
2022-11-15T02:23:45.694Z,10.30
2022-11-15T02:26:54.285Z,11.60
2022-11-15T02:30:15.299Z,11.40
2022-11-15T02:33:42.870Z,10.00
2022-11-15T02:37:01.107Z,12.20
2022-11-15T02:40:25.967Z,7.10
2022-11-15T02:43:59.562Z,13.30
2022-11-15T02:47:15.861Z,6.40
2022-11-15T02:50:22.543Z,7.50
2022-11-15T02:53:30.590Z,12.20
2022-11-15T02:56:36.822Z,9.30
2022-11-15T03:00:00.313Z,9.60
2022-11-15T03:03:28.098Z,9.20
2022-11-15T03:06:43.166Z,8.50
2022-11-15T03:09:48.644Z,12.70
2022-11-15T03:12:59.035Z,7.90
2022-11-15T03:16:07.976Z,10.60
2022-11-15T03:19:32.412Z,9.30
2022-11-15T03:22:40.364Z,9.10
2022-11-15T03:25:47.378Z,9.90
2022-11-15T03:29:03.693Z,10.30
2022-11-15T03:32:12.511Z,8.90
2022-11-15T03:35:20.626Z,5.10
2022-11-15T03:38:27.496Z,9.10
2022-11-15T03:41:44.319Z,12.60
2022-11-15T03:44:55.810Z,8.70
2022-11-15T03:48:04.243Z,10.10
2022-11-15T03:51:09.768Z,10.30
2022-11-15T03:54:15.547Z,9.50
2022-11-15T03:57:21.927Z,10.40
2022-11-15T04:00:28.447Z,11.10
2022-11-15T04:03:34.340Z,10.50
2022-11-15T04:06:40.583Z,7.80
2022-11-15T04:10:04.753Z,11.50
2022-11-15T04:13:10.624Z,13.30
2022-11-15T04:16:17.155Z,12.00
2022-11-15T04:19:42.024Z,9.00
2022-11-15T04:23:06.346Z,12.70
2022-11-15T04:26:15.793Z,8.50
2022-11-15T04:29:36.322Z,10.70
2022-11-15T04:32:42.091Z,8.40
2022-11-15T04:36:07.624Z,10.40
2022-11-15T04:39:13.637Z,10.30
2022-11-15T04:42:19.495Z,10.00
2022-11-15T04:45:25.637Z,12.70
2022-11-15T04:48:31.454Z,10.30
2022-11-15T04:51:37.011Z,10.70
2022-11-15T04:54:43.843Z,11.90
2022-11-15T04:57:57.816Z,10.50
2022-11-15T05:01:15.565Z,6.60
2022-11-15T05:04:21.108Z,10.80
2022-11-15T05:07:26.611Z,8.60
2022-11-15T05:10:32.132Z,11.00
2022-11-15T05:13:37.762Z,12.90
2022-11-15T05:16:44.050Z,9.30
2022-11-15T05:19:50.009Z,7.90
2022-11-15T05:22:56.797Z,13.40
2022-11-15T05:26:08.843Z,12.10
2022-11-15T05:32:21.527Z,10.60
2022-11-15T05:35:32.842Z,12.40
2022-11-15T05:38:38.540Z,11.10
2022-11-15T05:41:47.599Z,10.70
2022-11-15T05:44:53.252Z,10.30
2022-11-15T05:48:00.884Z,10.20
2022-11-15T05:51:07.742Z,6.60
2022-11-15T05:54:13.546Z,9.00
2022-11-15T05:57:19.300Z,10.90
2022-11-15T06:00:25.319Z,10.10
2022-11-15T06:03:31.557Z,10.30
2022-11-15T06:06:37.560Z,10.70
2022-11-15T06:09:43.421Z,13.40
2022-11-15T06:12:56.899Z,11.00
2022-11-15T06:16:02.541Z,11.70
2022-11-15T06:19:08.773Z,9.00
2022-11-15T06:22:14.213Z,12.40
2022-11-15T06:25:19.857Z,14.50
2022-11-15T06:28:25.460Z,7.70
2022-11-15T06:31:31.386Z,7.20
2022-11-15T06:34:37.326Z,11.40
2022-11-15T06:37:43.467Z,13.60
2022-11-15T06:40:49.486Z,9.90
2022-11-15T06:43:55.451Z,10.70
2022-11-15T06:47:01.317Z,12.40
2022-11-15T06:50:07.677Z,14.20
2022-11-15T06:53:13.565Z,15.60
2022-11-15T06:56:19.244Z,12.80
2022-11-15T06:59:26.317Z,10.50
2022-11-15T07:02:32.023Z,13.90
2022-11-15T07:05:37.815Z,15.20
2022-11-15T07:08:44.005Z,21.40
2022-11-15T07:11:49.425Z,9.90
2022-11-15T07:14:55.429Z,11.10
2022-11-15T07:18:04.279Z,34.20
2022-11-15T07:21:11.423Z,11.80
2022-11-15T07:24:17.209Z,11.40
2022-11-15T07:27:23.447Z,14.90
2022-11-15T07:30:29.649Z,14.50
2022-11-15T07:33:35.809Z,16.30
2022-11-15T07:36:41.078Z,14.30
2022-11-15T07:39:46.211Z,16.00
2022-11-15T07:42:54.682Z,25.50
2022-11-15T07:46:00.565Z,19.20
2022-11-15T07:49:06.015Z,16.10
2022-11-15T07:52:11.998Z,15.70
2022-11-15T07:55:17.853Z,13.20
2022-11-15T07:58:23.740Z,16.00
2022-11-15T08:01:29.565Z,15.60
2022-11-15T08:04:35.675Z,17.90
2022-11-15T08:07:41.499Z,11.90
2022-11-15T08:10:46.958Z,14.20
2022-11-15T08:13:52.720Z,14.90
2022-11-15T08:16:58.506Z,16.70
2022-11-15T08:20:04.566Z,26.00
2022-11-15T08:23:11.478Z,15.50
2022-11-15T08:26:17.775Z,15.80
2022-11-15T08:29:23.430Z,24.50
2022-11-15T08:32:29.370Z,12.00
2022-11-15T08:35:35.262Z,15.10
2022-11-15T08:38:41.065Z,11.90
2022-11-15T08:41:47.704Z,21.70
2022-11-15T08:44:53.573Z,14.10
2022-11-15T08:47:59.216Z,22.80
2022-11-15T08:51:04.882Z,20.00
2022-11-15T08:54:10.747Z,21.60
2022-11-15T08:57:16.651Z,17.90
2022-11-15T09:00:22.658Z,40.40
2022-11-15T09:03:28.706Z,20.20
2022-11-15T09:06:34.562Z,27.40
2022-11-15T09:09:40.428Z,21.20
2022-11-15T09:12:49.528Z,23.50
2022-11-15T09:15:58.530Z,30.50
2022-11-15T09:19:10.426Z,27.70
2022-11-15T09:22:17.276Z,31.20
2022-11-15T09:25:23.433Z,28.60
2022-11-15T09:28:30.223Z,40.50
2022-11-15T09:31:36.352Z,31.10
2022-11-15T09:34:42.863Z,41.30
2022-11-15T09:37:56.168Z,27.50
2022-11-15T09:41:12.597Z,37.40
2022-11-15T09:44:41.956Z,39.40
2022-11-15T09:47:47.701Z,34.30
2022-11-15T09:51:01.973Z,36.50
2022-11-15T09:57:15.774Z,33.30
2022-11-15T10:03:17.599Z,35.40
2022-11-15T10:06:05.964Z,32.50
2022-11-15T10:08:55.843Z,28.40
2022-11-15T10:11:42.827Z,30.30
2022-11-15T10:14:30.804Z,27.00
2022-11-15T10:17:17.885Z,26.60
2022-11-15T10:20:09.844Z,27.20
2022-11-15T10:23:16.872Z,25.10
2022-11-15T10:26:08.833Z,24.30
2022-11-15T10:28:55.424Z,22.50
2022-11-15T10:31:42.692Z,24.70
2022-11-15T10:34:29.565Z,25.50
2022-11-15T10:37:27.796Z,24.40
2022-11-15T10:40:24.043Z,23.60
2022-11-15T10:43:10.711Z,24.60
2022-11-15T10:46:39.444Z,25.30
2022-11-15T10:49:21.650Z,27.80
2022-11-15T10:52:20.506Z,22.10
2022-11-15T10:55:13.711Z,24.50
2022-11-15T10:58:04.053Z,23.10
2022-11-15T11:00:53.309Z,24.10
2022-11-15T11:03:42.159Z,23.80
2022-11-15T11:06:29.583Z,23.50
2022-11-15T11:09:31.826Z,24.80
2022-11-15T11:12:27.712Z,27.90
2022-11-15T11:15:16.209Z,23.90
2022-11-15T11:18:16.430Z,22.30
2022-11-15T11:21:12.968Z,23.70
2022-11-15T11:24:01.976Z,31.60
2022-11-15T11:27:03.994Z,31.00
2022-11-15T11:32:52.528Z,22.20
2022-11-15T11:35:45.097Z,26.20
2022-11-15T11:38:35.749Z,24.90
2022-11-15T11:41:39.716Z,25.10
2022-11-15T11:44:26.824Z,24.00
2022-11-15T11:47:18.686Z,24.60
2022-11-15T11:53:11.246Z,34.10
2022-11-15T11:56:10.802Z,26.10
2022-11-15T11:59:20.963Z,25.90
2022-11-15T12:02:21.878Z,25.80
2022-11-15T12:05:12.015Z,23.40
2022-11-15T12:08:21.478Z,22.00
2022-11-15T12:11:11.339Z,22.80
2022-11-15T12:14:00.989Z,21.00
2022-11-15T12:16:47.927Z,23.90
2022-11-15T12:19:36.207Z,21.90
2022-11-15T12:22:29.278Z,20.00
2022-11-15T12:25:21.624Z,20.20
2022-11-15T12:28:18.826Z,29.20
2022-11-15T12:31:07.956Z,23.60
2022-11-15T12:34:01.762Z,23.80
2022-11-15T12:36:52.911Z,23.90
2022-11-15T12:40:03.491Z,20.60
2022-11-15T12:42:57.371Z,20.80
2022-11-15T12:45:45.129Z,19.30
2022-11-15T12:48:41.196Z,20.70
2022-11-15T12:51:43.333Z,17.90
2022-11-15T12:54:33.563Z,19.30
2022-11-15T12:57:20.356Z,18.60
2022-11-15T13:00:16.440Z,21.00
2022-11-15T13:03:20.816Z,19.20
2022-11-15T13:06:08.951Z,20.40
2022-11-15T13:08:55.522Z,20.00
2022-11-15T13:11:47.748Z,20.20
2022-11-15T13:14:37.647Z,19.60
2022-11-15T13:17:35.591Z,20.60
2022-11-15T13:20:29.998Z,18.80
2022-11-15T13:23:17.659Z,18.00
2022-11-15T13:26:13.535Z,19.40
2022-11-15T13:29:01.836Z,25.50
2022-11-15T13:31:50.509Z,24.40
2022-11-15T13:34:54.234Z,22.70
2022-11-15T13:37:42.106Z,24.60
2022-11-15T13:40:31.637Z,23.50
2022-11-15T13:43:29.548Z,24.10
2022-11-15T13:46:19.831Z,22.80
2022-11-15T13:49:11.835Z,23.20
2022-11-15T13:51:59.500Z,23.50
2022-11-15T13:54:48.830Z,21.70
2022-11-15T13:57:44.373Z,22.40
2022-11-15T14:00:34.408Z,20.80
2022-11-15T14:03:23.336Z,24.10
2022-11-15T14:06:16.062Z,22.70
2022-11-15T14:09:12.441Z,26.50
2022-11-15T14:11:59.922Z,27.30
2022-11-15T14:14:47.133Z,25.60
2022-11-15T14:17:35.411Z,24.60
2022-11-15T14:20:29.265Z,23.30
2022-11-15T14:23:26.296Z,27.70
2022-11-15T14:26:33.097Z,27.30
2022-11-15T14:29:26.911Z,26.80
2022-11-15T14:32:15.530Z,29.40
2022-11-15T14:35:03.572Z,29.00
2022-11-15T14:37:51.006Z,33.50
2022-11-15T14:40:43.330Z,32.80
2022-11-15T14:43:30.524Z,32.00
2022-11-15T14:46:17.837Z,33.80
2022-11-15T14:49:05.144Z,36.20
2022-11-15T14:51:57.089Z,55.20
2022-11-15T14:54:49.172Z,51.60
2022-11-15T14:57:41.568Z,35.80
2022-11-15T15:00:35.174Z,33.10
2022-11-15T15:03:48.128Z,30.60
2022-11-15T15:06:35.089Z,30.50
2022-11-15T15:09:26.685Z,30.70
2022-11-15T15:12:21.408Z,30.80
2022-11-15T15:15:17.884Z,35.20
2022-11-15T15:18:10.158Z,36.60
2022-11-15T15:21:04.248Z,33.80
2022-11-15T15:23:56.377Z,21.40
2022-11-15T15:26:48.269Z,30.50
2022-11-15T15:31:03.812Z,30.50
2022-11-15T15:36:42.272Z,19.70
2022-11-15T15:39:28.630Z,32.50
2022-11-15T15:42:21.342Z,30.60
2022-11-15T15:48:00.332Z,23.00
2022-11-15T15:50:48.418Z,29.00
2022-11-15T15:53:40.795Z,31.60
2022-11-15T15:56:29.147Z,29.70
2022-11-15T15:59:21.069Z,32.50
2022-11-15T16:02:13.304Z,33.10
2022-11-15T16:06:41.512Z,31.30
2022-11-15T16:09:51.761Z,30.60
2022-11-15T16:12:39.125Z,30.80
2022-11-15T16:15:44.671Z,20.10
2022-11-15T16:18:36.665Z,36.60
2022-11-15T16:23:21.138Z,48.60
2022-11-15T16:26:19.344Z,32.10
2022-11-15T16:29:11.570Z,41.20
2022-11-15T16:37:30.877Z,41.80
2022-11-15T16:40:28.381Z,39.70
2022-11-15T16:43:20.535Z,46.50
2022-11-15T16:49:01.005Z,46.60
2022-11-15T16:51:53.344Z,51.90
2022-11-15T16:54:45.103Z,31.70
2022-11-15T16:57:36.657Z,42.80
2022-11-15T17:00:23.694Z,41.80
2022-11-15T17:03:10.852Z,28.60
2022-11-15T17:06:02.851Z,43.40
2022-11-15T17:08:49.708Z,48.00
2022-11-15T17:11:42.455Z,45.60
2022-11-15T17:16:05.868Z,46.30
2022-11-15T17:18:58.237Z,31.90
2022-11-15T17:24:37.320Z,30.70
2022-11-15T17:27:29.031Z,26.10
2022-11-15T17:30:21.351Z,39.50
2022-11-15T17:33:13.061Z,40.20
2022-11-15T17:36:07.256Z,44.30
2022-11-15T17:38:59.928Z,31.80
2022-11-15T17:43:24.518Z,55.90
2022-11-15T17:46:19.295Z,81.20
2022-11-15T17:49:11.320Z,59.70
2022-11-15T17:52:02.783Z,36.70
2022-11-15T17:57:44.062Z,30.90
2022-11-15T18:00:31.010Z,32.20
2022-11-15T18:03:17.866Z,31.40
2022-11-15T18:06:09.933Z,59.40
2022-11-15T18:11:41.582Z,56.80
2022-11-15T18:14:33.117Z,57.50
2022-11-15T18:17:19.800Z,54.80
2022-11-15T18:20:06.468Z,59.00
2022-11-15T18:22:58.749Z,60.40
2022-11-15T18:25:54.053Z,59.70
2022-11-15T18:28:47.502Z,65.80
2022-11-15T18:31:41.374Z,39.00
2022-11-15T18:34:37.241Z,48.30
2022-11-15T18:38:56.232Z,55.20
2022-11-15T18:41:48.083Z,91.90
2022-11-15T18:47:31.946Z,96.50
2022-11-15T18:55:51.196Z,79.10
2022-11-15T18:58:38.983Z,56.10
2022-11-15T19:01:38.107Z,88.60
2022-11-15T19:04:24.920Z,89.10
2022-11-15T19:07:16.612Z,81.70
2022-11-15T19:10:08.288Z,69.50
2022-11-15T19:12:59.805Z,40.70
2022-11-15T19:15:56.937Z,67.20
2022-11-15T19:18:49.125Z,67.20
2022-11-15T19:23:07.287Z,66.80
2022-11-15T19:25:59.650Z,62.80
2022-11-15T19:28:52.773Z,64.10
2022-11-15T19:31:44.218Z,63.80
2022-11-15T19:34:36.071Z,44.50
2022-11-15T19:37:27.519Z,62.30
2022-11-15T19:40:20.018Z,66.40
2022-11-15T19:43:13.100Z,77.80
2022-11-15T19:47:35.004Z,74.40
2022-11-15T19:50:21.779Z,72.90
2022-11-15T19:53:14.123Z,70.70
2022-11-15T19:56:02.541Z,70.70
2022-11-15T19:58:55.531Z,44.30
2022-11-15T20:01:47.570Z,49.40
2022-11-15T20:04:39.405Z,74.70
2022-11-15T20:07:30.963Z,79.60
2022-11-15T20:10:22.640Z,82.90
2022-11-15T20:14:47.721Z,85.70
2022-11-15T20:17:39.485Z,85.40
2022-11-15T20:20:31.232Z,85.90
2022-11-15T20:23:23.205Z,85.80
2022-11-15T20:26:10.460Z,75.90
2022-11-15T20:29:03.263Z,81.50
2022-11-15T20:31:55.132Z,81.30
2022-11-15T20:34:51.444Z,86.20
2022-11-15T20:37:40.735Z,86.20
2022-11-15T20:40:27.574Z,78.10
2022-11-15T20:43:15.461Z,80.00
2022-11-15T20:46:07.571Z,46.40
2022-11-15T20:48:59.102Z,80.70
2022-11-15T20:52:01.939Z,89.60
2022-11-15T20:54:53.446Z,89.30
2022-11-15T20:57:45.292Z,87.50
2022-11-15T21:00:37.322Z,58.00
2022-11-15T21:03:29.412Z,53.50
2022-11-15T21:09:14.919Z,57.80
2022-11-15T21:12:11.806Z,82.80
2022-11-15T21:15:04.753Z,96.20
2022-11-15T21:17:56.199Z,93.60
2022-11-15T21:20:49.301Z,67.00
2022-11-15T21:23:41.168Z,115.10
2022-11-15T21:26:32.938Z,99.40
2022-11-15T21:29:24.496Z,106.20
2022-11-15T21:32:17.248Z,107.60
2022-11-15T21:35:04.253Z,94.20
2022-11-15T21:37:57.197Z,51.50
2022-11-15T21:40:44.073Z,84.40
2022-11-15T21:43:35.953Z,91.90
2022-11-15T21:46:29.446Z,89.30
2022-11-15T21:49:22.475Z,80.20
2022-11-15T21:52:14.847Z,52.00
2022-11-15T21:56:30.029Z,90.40
2022-11-15T21:59:22.381Z,56.20
2022-11-15T22:02:15.153Z,73.20
2022-11-15T22:08:15.499Z,43.50
2022-11-15T22:11:02.142Z,58.60
2022-11-15T22:13:49.441Z,40.50
2022-11-15T22:16:41.726Z,67.20
2022-11-15T22:19:29.170Z,45.80
2022-11-15T22:22:21.052Z,43.50
2022-11-15T22:25:12.923Z,68.80
2022-11-15T22:28:09.124Z,56.10
2022-11-15T22:30:57.130Z,52.40
2022-11-15T22:33:49.450Z,54.10
2022-11-15T22:37:13.295Z,47.00
2022-11-15T22:39:57.720Z,50.90
2022-11-15T22:42:50.308Z,73.30
2022-11-15T22:48:35.526Z,77.00
2022-11-15T22:51:27.929Z,51.00
2022-11-15T22:54:20.161Z,51.30
2022-11-15T22:57:06.934Z,49.30
2022-11-15T22:59:54.195Z,50.00
2022-11-15T23:02:49.531Z,51.20
2022-11-15T23:05:43.989Z,54.00
2022-11-15T23:08:35.886Z,79.20
2022-11-15T23:11:57.685Z,53.90
2022-11-15T23:14:49.774Z,61.00
2022-11-15T23:17:42.104Z,87.40
2022-11-15T23:20:42.919Z,62.20
2022-11-15T23:23:36.546Z,88.30
2022-11-15T23:26:29.065Z,80.10
2022-11-15T23:29:21.391Z,51.10
2022-11-15T23:32:32.138Z,49.20
2022-11-15T23:35:26.895Z,86.60
2022-11-15T23:38:18.857Z,104.60
2022-11-15T23:41:10.893Z,92.90
2022-11-15T23:44:03.148Z,68.00
2022-11-15T23:46:59.040Z,97.50
2022-11-15T23:49:47.185Z,61.90
2022-11-15T23:52:39.023Z,90.50
2022-11-15T23:55:30.661Z,81.40
2022-11-15T23:58:22.534Z,75.80
